KSEA Airport Information

Runway Information
Runway 16C Length 9426 ft width 150 ft
Elevation 430 ft Threshold 0 ft Heading 180
Runway 34C Length 9426 ft Width 150 ft
Elevation 363 ft Threshold 0 ft Heading 0
Runway 16L Length 11900 ft width 150 ft
Elevation 432 ft Threshold 0 ft Heading 180
Runway 34R Length 11900 ft Width 150 ft
Elevation 347 ft Threshold 0 ft Heading 360
Runway 16R Length 9426 ft width 150 ft
Elevation 430 ft Threshold 0 ft Heading 180
Runway 34L Length 9426 ft Width 150 ft
Elevation 363 ft Threshold 0 ft Heading 360
Airport Frequencies
Type A/D Name APP/DEP Frequency 119.2 MHZ
Type ATIS Name ATIS Frequency 118 MHZ
Type CLD Name CLNC DEL Frequency 128 MHZ
Type GND Name GND Frequency 121.7 MHZ
Type TWR Name TWR Frequency 119.9 MHZ
Type UNIC Name UNICOM Frequency 122.95 MHZ
Airport Navaids
Type NDB Name Dondo Frequency 224 KHZ
Type VORTAC Name Seattle Frequency 116800 KHZ
Type NDB Name Parkk Frequency 281 KHZ
Airport Weather Information & NOTAM

Deprecated: The each() function is deprecated. This message will be suppressed on further calls in /home/wcbvurrgtooq/public_html/flightcenter/lib/functions.php on line 135
ADDS - METARS form results

(1236 UTC 26 February 2020)
Data provider http://aviationweather.gov/metar/data/
 
METAR text: KSEA 261214Z 18003KT 2SM -DZ BR BKN003 OVC010 06/06 A3046 RMK AO2 RAE07DZB07 P0000 T00610056
Conditions at: KSEA (SEATTLE/METRO , WA, US) observed 1214 UTC 26 February 2020
Temperature: 6.1°C (43°F)
Dewpoint: 5.6°C (42°F) [RH = 97%]
Pressure (altimeter): 30.46 inches Hg (1031.6 mb)
Winds: from the S (180 degrees) at 3 MPH (3 knots; 1.5 m/s)
Visibility: 2.00 miles (3.22 km)
Ceiling: 300 feet AGL
Clouds: broken clouds at 300 feet AGL
overcast cloud deck at 1000 feet AGL
Weather: -DZ BR  (light drizzle, mist)

METAR text: KSEA 261207Z 16003KT 2SM -DZ BR FEW005 OVC010 07/06 A3045 RMK AO2 RAE07DZB07 P0000 T00670056
Conditions at: KSEA (SEATTLE/METRO , WA, US) observed 1207 UTC 26 February 2020
Temperature: 6.7°C (44°F)
Dewpoint: 5.6°C (42°F) [RH = 93%]
Pressure (altimeter): 30.45 inches Hg (1031.2 mb)
Winds: from the SSE (160 degrees) at 3 MPH (3 knots; 1.5 m/s)
Visibility: 2.00 miles (3.22 km)
Ceiling: 1000 feet AGL
Clouds: few clouds at 500 feet AGL
overcast cloud deck at 1000 feet AGL
Weather: -DZ BR  (light drizzle, mist)

METAR text: KSEA 261153Z 15003KT 3SM -RA BR FEW004 OVC012 07/06 A3045 RMK AO2 RAB25 SLP320 P0001 60002 70002 T00670056 10094 20067 51007
Conditions at: KSEA (SEATTLE/METRO , WA, US) observed 1153 UTC 26 February 2020
Temperature: 6.7°C (44°F)
Dewpoint: 5.6°C (42°F) [RH = 93%]
Pressure (altimeter): 30.45 inches Hg (1031.2 mb)
[Sea-level pressure: 1032.0 mb]
Winds: from the SSE (150 degrees) at 3 MPH (3 knots; 1.5 m/s)
Visibility: 3 miles ( 5 km)
Ceiling: 1200 feet AGL
Clouds: few clouds at 400 feet AGL
overcast cloud deck at 1200 feet AGL
Weather: -RA BR  (light rain, mist)

Forecast for: KSEA (SEATTLE/METRO , WA, US)
Text: KSEA 261120Z 2612/2718 16004KT P6SM OVC025
Forecast period: 1200 to 2100 UTC 26 February 2020
Forecast type: FROM: standard forecast or significant change
Winds: from the SSE (160 degrees) at 5 MPH (4 knots; 2.1 m/s)
Visibility: 6 or more miles 10+ km)
Ceiling: 2500 feet AGL
Clouds: overcast cloud deck at 2500 feet AGL
Weather: no significant weather forecast for this period
Text: TEMPO 2612/2616 5SM BR FEW004 SCT015
Forecast period: 1200 to 1600 UTC 26 February 2020
Forecast type: TEMPORARY: The following changes expected for less than half the time period
Visibility: 5 miles (8 km)
Ceiling: at least 12,000 feet AGL
Clouds: few clouds at 400 feet AGL
scattered clouds at 1500 feet AGL
Weather: BR  (mist)
Text: FM262100 23003KT P6SM OVC050
Forecast period: 2100 UTC 26 February 2020 to 0100 UTC 27 February 2020
Forecast type: FROM: standard forecast or significant change
Winds: from the SW (230 degrees) at 3 MPH (3 knots; 1.5 m/s)
Visibility: 6 or more miles 10+ km)
Ceiling: 5000 feet AGL
Clouds: overcast cloud deck at 5000 feet AGL
Weather: no significant weather forecast for this period
Text: FM270100 VRB03KT P6SM OVC050
Forecast period: 0100 to 1800 UTC 27 February 2020
Forecast type: FROM: standard forecast or significant change
Winds: variable direction winds at 3 MPH (3 knots; 1.5 m/s)
Visibility: 6 or more miles 10+ km)
Ceiling: 5000 feet AGL
Clouds: overcast cloud deck at 5000 feet AGL
Weather: no significant weather forecast for this period